Time;durP1;ratioP1;P1;durP2;ratioP2;P2;SDS_P1;SDS_P2;PMS_P1;PMS_P2;Temp;Humidity;BMP_temperature;BMP_pressure;BME280_temperature;BME280_humidity;BME280_pressure;Samples;Min_cycle;Max_cycle;Signal;HPM_P1;HPM_P2
2022/03/30 00:00:13;;;;;;;;;6.25;5.00;;;;;;;;5075414;27;51178;-58
2022/03/30 00:02:57;;;;;;;;;7.25;5.75;;;;;;;;5055962;27;51415;-57
2022/03/30 00:05:43;;;;;;;;;8.75;5.25;;;;;;;;5082981;27;51214;-58
2022/03/30 00:08:27;;;;;;;;;11.25;6.00;;;;;;;;5059412;27;51812;-58
2022/03/30 00:11:12;;;;;;;;;5.75;5.50;;;;;;;;5076091;27;51210;-58
2022/03/30 00:13:58;;;;;;;;;9.50;6.25;;;;;;;;5088790;27;51408;-58
2022/03/30 00:16:42;;;;;;;;;9.00;6.00;;;;;;;;5080409;27;51198;-58
2022/03/30 00:19:31;;;;;;;;;5.50;5.00;;;;;;;;5042253;27;51100;-58
2022/03/30 00:22:16;;;;;;;;;10.25;5.75;;;;;;;;5088714;27;51474;-58
2022/03/30 00:25:03;;;;;;;;;4.75;4.50;;;;;;;;5076910;27;50959;-58
2022/03/30 00:27:57;;;;;;;;;8.00;3.75;;;;;;;;5070475;27;51487;-58
2022/03/30 00:30:42;;;;;;;;;8.75;5.00;;;;;;;;5087939;27;51163;-57
2022/03/30 00:33:36;;;;;;;;;10.00;5.75;;;;;;;;5073174;27;51388;-57
2022/03/30 00:36:21;;;;;;;;;6.00;4.50;;;;;;;;5063431;27;51092;-58
2022/03/30 00:39:08;;;;;;;;;7.00;5.25;;;;;;;;5085773;27;51484;-58
2022/03/30 00:41:53;;;;;;;;;9.25;6.00;;;;;;;;5077817;27;51140;-58
2022/03/30 00:44:38;;;;;;;;;4.25;4.00;;;;;;;;5100903;27;51077;-59
2022/03/30 00:47:28;;;;;;;;;10.50;5.75;;;;;;;;5075902;27;51152;-58
2022/03/30 00:50:38;;;;;;;;;7.25;4.00;;;;;;;;5063625;27;51155;-58
2022/03/30 00:53:24;;;;;;;;;8.50;6.25;;;;;;;;5093096;27;52265;-58
2022/03/30 00:56:08;;;;;;;;;7.50;5.75;;;;;;;;5038977;27;51143;-58
2022/03/30 00:59:05;;;;;;;;;6.75;5.25;;;;;;;;5095271;27;51104;-58
2022/03/30 01:01:50;;;;;;;;;13.25;5.50;;;;;;;;5074471;27;51156;-58
2022/03/30 01:04:36;;;;;;;;;8.25;4.75;;;;;;;;5051909;27;51246;-58
2022/03/30 01:07:33;;;;;;;;;8.00;5.25;;;;;;;;5081761;27;51061;-58
2022/03/30 01:10:18;;;;;;;;;5.75;4.00;;;;;;;;5100991;27;51059;-58
2022/03/30 01:13:13;;;;;;;;;9.50;6.25;;;;;;;;5048762;27;51369;-57
2022/03/30 01:16:06;;;;;;;;;7.50;6.50;;;;;;;;5085989;27;51155;-58
2022/03/30 01:19:02;;;;;;;;;10.25;5.25;;;;;;;;5059474;27;51182;-59
2022/03/30 01:21:49;;;;;;;;;5.50;4.00;;;;;;;;5045326;27;51101;-57
2022/03/30 01:24:35;;;;;;;;;7.50;4.75;;;;;;;;5098976;27;51377;-59
2022/03/30 01:27:20;;;;;;;;;11.00;6.50;;;;;;;;5060909;27;51225;-57
2022/03/30 01:33:39;;;;;;;;;6.50;5.75;;;;;;;;5051062;27;51056;-58
2022/03/30 01:36:25;;;;;;;;;10.75;7.00;;;;;;;;5103241;27;51030;-58
2022/03/30 01:39:22;;;;;;;;;4.50;4.00;;;;;;;;5087781;27;51459;-58
2022/03/30 01:42:12;;;;;;;;;13.00;6.25;;;;;;;;5091558;27;51146;-57
2022/03/30 01:44:58;;;;;;;;;7.00;7.00;;;;;;;;5098138;27;51472;-58
2022/03/30 01:48:08;;;;;;;;;8.00;5.50;;;;;;;;5066072;27;51131;-58
2022/03/30 01:50:52;;;;;;;;;11.50;6.00;;;;;;;;5102933;27;51120;-59
2022/03/30 01:53:41;;;;;;;;;8.00;6.50;;;;;;;;5082710;27;51081;-58
2022/03/30 01:56:27;;;;;;;;;10.75;7.50;;;;;;;;5087827;27;51316;-58
2022/03/30 01:59:34;;;;;;;;;7.00;5.00;;;;;;;;5081807;27;51057;-58
2022/03/30 02:02:19;;;;;;;;;10.50;7.50;;;;;;;;5088661;27;51245;-58
2022/03/30 02:05:25;;;;;;;;;11.25;7.00;;;;;;;;5071471;27;51101;-59
2022/03/30 02:08:09;;;;;;;;;9.25;6.25;;;;;;;;5097153;27;51043;-58
2022/03/30 02:10:55;;;;;;;;;8.25;6.00;;;;;;;;5086582;27;51144;-58
2022/03/30 02:13:42;;;;;;;;;6.75;5.50;;;;;;;;5073184;27;51118;-58
2022/03/30 02:16:26;;;;;;;;;5.25;4.25;;;;;;;;5084138;27;51452;-55
2022/03/30 02:19:12;;;;;;;;;8.00;6.75;;;;;;;;5103954;27;51145;-57
2022/03/30 02:22:03;;;;;;;;;9.50;6.25;;;;;;;;5093179;27;51318;-58
2022/03/30 02:24:56;;;;;;;;;11.50;6.25;;;;;;;;5098470;27;51175;-58
2022/03/30 02:27:47;;;;;;;;;8.50;4.50;;;;;;;;5070313;27;51188;-58
2022/03/30 02:30:31;;;;;;;;;7.50;6.00;;;;;;;;5077607;27;51259;-58
2022/03/30 02:33:24;;;;;;;;;9.50;6.50;;;;;;;;5070414;27;51547;-58
2022/03/30 02:36:28;;;;;;;;;10.00;7.50;;;;;;;;5058478;27;51170;-58
2022/03/30 02:39:15;;;;;;;;;6.00;6.00;;;;;;;;5074081;27;51526;-57
2022/03/30 02:42:01;;;;;;;;;5.50;4.75;;;;;;;;5075041;27;51531;-58
2022/03/30 02:44:46;;;;;;;;;15.00;6.75;;;;;;;;5087409;27;51215;-57
2022/03/30 02:50:33;;;;;;;;;6.00;6.00;;;;;;;;5036701;27;51052;-58
2022/03/30 02:53:18;;;;;;;;;9.00;6.00;;;;;;;;5067327;27;51170;-59
2022/03/30 02:56:10;;;;;;;;;9.25;6.00;;;;;;;;5075974;27;52627;-57
2022/03/30 02:59:05;;;;;;;;;8.00;5.00;;;;;;;;5081716;27;51011;-59
2022/03/30 03:01:50;;;;;;;;;9.25;6.00;;;;;;;;5070097;27;51104;-58
2022/03/30 03:04:34;;;;;;;;;11.25;6.50;;;;;;;;5070409;27;51127;-58
2022/03/30 03:07:24;;;;;;;;;5.00;5.00;;;;;;;;5070903;27;51234;-57
2022/03/30 03:10:10;;;;;;;;;9.25;6.25;;;;;;;;5068986;27;51176;-57
2022/03/30 03:12:55;;;;;;;;;8.00;5.50;;;;;;;;5075441;27;51462;-58
2022/03/30 03:15:40;;;;;;;;;7.25;5.00;;;;;;;;5101815;27;51052;-58
2022/03/30 03:18:35;;;;;;;;;12.25;7.50;;;;;;;;5087619;27;51082;-58
2022/03/30 03:21:20;;;;;;;;;7.50;6.25;;;;;;;;5063890;27;51542;-58
2022/03/30 03:24:06;;;;;;;;;9.00;6.00;;;;;;;;5085459;27;51127;-58
2022/03/30 03:26:55;;;;;;;;;9.00;6.00;;;;;;;;5095309;27;51163;-58
2022/03/30 03:29:43;;;;;;;;;16.00;8.75;;;;;;;;5083980;27;51192;-58
2022/03/30 03:32:28;;;;;;;;;8.75;5.75;;;;;;;;5085800;27;51072;-58
2022/03/30 03:35:16;;;;;;;;;15.25;9.50;;;;;;;;5102367;27;51143;-58
2022/03/30 03:38:11;;;;;;;;;12.25;7.75;;;;;;;;5084587;27;51374;-58
2022/03/30 03:40:58;;;;;;;;;10.25;7.75;;;;;;;;5069284;27;51131;-58
2022/03/30 03:43:42;;;;;;;;;8.00;7.50;;;;;;;;5073595;27;51052;-58
2022/03/30 03:46:29;;;;;;;;;12.25;7.50;;;;;;;;5075037;27;51512;-58
2022/03/30 03:49:16;;;;;;;;;10.50;7.75;;;;;;;;5077672;27;51210;-58
2022/03/30 03:52:13;;;;;;;;;13.50;7.75;;;;;;;;5070914;27;51164;-58
2022/03/30 03:55:07;;;;;;;;;10.50;6.75;;;;;;;;5079303;27;51113;-58
2022/03/30 03:57:55;;;;;;;;;9.00;8.00;;;;;;;;5073386;27;51156;-58
2022/03/30 04:00:48;;;;;;;;;5.25;3.25;;;;;;;;5075394;27;51113;-58
2022/03/30 04:03:48;;;;;;;;;12.00;5.50;;;;;;;;5079668;27;51462;-58
2022/03/30 04:06:37;;;;;;;;;10.50;8.50;;;;;;;;5084062;27;51096;-58
2022/03/30 04:09:27;;;;;;;;;6.00;4.75;;;;;;;;5057117;27;51188;-58
2022/03/30 04:12:12;;;;;;;;;9.50;6.75;;;;;;;;5071685;27;51362;-59
2022/03/30 04:15:07;;;;;;;;;10.50;8.00;;;;;;;;5082234;27;51277;-58
2022/03/30 04:17:54;;;;;;;;;10.75;7.25;;;;;;;;5078279;27;51198;-58
2022/03/30 04:20:43;;;;;;;;;9.00;7.75;;;;;;;;5101915;27;50992;-58
2022/03/30 04:23:38;;;;;;;;;9.25;8.00;;;;;;;;5089847;27;51080;-58
2022/03/30 04:26:25;;;;;;;;;10.50;8.75;;;;;;;;5083770;27;51090;-58
2022/03/30 04:29:31;;;;;;;;;9.50;5.75;;;;;;;;5074693;27;51033;-58
2022/03/30 04:32:15;;;;;;;;;8.50;6.75;;;;;;;;5043970;27;52225;-59
2022/03/30 04:35:04;;;;;;;;;9.50;7.00;;;;;;;;5023622;27;52234;-58
2022/03/30 04:37:53;;;;;;;;;8.50;6.50;;;;;;;;5005802;27;51167;-57
2022/03/30 04:40:37;;;;;;;;;10.25;8.00;;;;;;;;5065289;27;51165;-58
2022/03/30 04:43:22;;;;;;;;;8.25;7.00;;;;;;;;5034093;27;51069;-58
2022/03/30 04:46:08;;;;;;;;;13.50;8.00;;;;;;;;4999024;27;51177;-57
2022/03/30 04:48:53;;;;;;;;;6.00;4.00;;;;;;;;5091514;27;51174;-58
2022/03/30 04:51:37;;;;;;;;;9.75;6.75;;;;;;;;5081703;27;51477;-57
2022/03/30 04:54:29;;;;;;;;;8.25;8.00;;;;;;;;5071478;27;51470;-57
2022/03/30 04:57:20;;;;;;;;;8.50;8.50;;;;;;;;5081632;27;51147;-58
2022/03/30 05:00:09;;;;;;;;;13.25;9.50;;;;;;;;5050947;27;51195;-57
2022/03/30 05:02:57;;;;;;;;;13.00;9.75;;;;;;;;5078695;27;52974;-57
2022/03/30 05:06:01;;;;;;;;;15.75;12.75;;;;;;;;5060891;27;51009;-57
2022/03/30 05:08:47;;;;;;;;;13.75;9.25;;;;;;;;5098782;27;51130;-57
2022/03/30 05:11:32;;;;;;;;;15.25;12.00;;;;;;;;5099739;27;51113;-58
2022/03/30 05:14:17;;;;;;;;;13.00;8.75;;;;;;;;5099889;27;51447;-57
2022/03/30 05:17:04;;;;;;;;;14.25;11.00;;;;;;;;5099346;27;51200;-57
2022/03/30 05:19:50;;;;;;;;;13.50;10.00;;;;;;;;5100157;27;51168;-57
2022/03/30 05:22:35;;;;;;;;;16.75;10.00;;;;;;;;5100001;27;51215;-57
2022/03/30 05:25:28;;;;;;;;;12.50;8.50;;;;;;;;5098007;27;51196;-57
2022/03/30 05:28:23;;;;;;;;;10.50;9.00;;;;;;;;5099631;27;51410;-57
2022/03/30 05:31:11;;;;;;;;;13.25;10.75;;;;;;;;5100132;27;51005;-57
2022/03/30 05:33:55;;;;;;;;;14.25;11.75;;;;;;;;5099965;27;51136;-57
2022/03/30 05:36:41;;;;;;;;;21.00;15.25;;;;;;;;5100094;27;51006;-57
2022/03/30 05:39:29;;;;;;;;;15.00;11.50;;;;;;;;5099777;27;51450;-57
2022/03/30 05:42:27;;;;;;;;;15.50;10.00;;;;;;;;5099686;27;51109;-57
2022/03/30 05:45:11;;;;;;;;;14.25;10.50;;;;;;;;5099873;27;51097;-57
2022/03/30 05:48:06;;;;;;;;;15.25;10.75;;;;;;;;5099762;27;51130;-58
2022/03/30 05:50:53;;;;;;;;;14.00;9.75;;;;;;;;5086088;27;51149;-57
2022/03/30 05:53:38;;;;;;;;;16.25;11.00;;;;;;;;5099378;27;51542;-58
2022/03/30 05:59:58;;;;;;;;;12.50;10.50;;;;;;;;5056193;27;51112;-57
2022/03/30 06:02:42;;;;;;;;;20.25;14.50;;;;;;;;5041325;27;51052;-57
2022/03/30 06:05:26;;;;;;;;;16.00;10.75;;;;;;;;5070545;27;51240;-57
2022/03/30 06:08:11;;;;;;;;;16.75;11.25;;;;;;;;5098730;27;51117;-57
2022/03/30 06:10:55;;;;;;;;;12.25;9.75;;;;;;;;5097749;27;51486;-57
2022/03/30 06:13:40;;;;;;;;;9.00;8.50;;;;;;;;5083077;27;51140;-57
2022/03/30 06:16:40;;;;;;;;;16.75;12.00;;;;;;;;5085738;27;51510;-57
2022/03/30 06:19:24;;;;;;;;;14.25;12.25;;;;;;;;5089042;27;51094;-57
2022/03/30 06:22:09;;;;;;;;;20.25;15.50;;;;;;;;5102898;27;51002;-57
2022/03/30 06:24:54;;;;;;;;;20.00;13.25;;;;;;;;5078752;27;51348;-57
2022/03/30 06:27:40;;;;;;;;;16.25;12.25;;;;;;;;5076637;27;51217;-57
2022/03/30 06:30:26;;;;;;;;;16.50;14.25;;;;;;;;5101799;27;51518;-57
2022/03/30 06:33:11;;;;;;;;;15.25;11.50;;;;;;;;5063555;27;51162;-57
2022/03/30 06:35:56;;;;;;;;;11.00;8.50;;;;;;;;5076814;27;51113;-57
2022/03/30 06:38:42;;;;;;;;;12.50;9.50;;;;;;;;5079976;27;51118;-57
2022/03/30 06:41:29;;;;;;;;;12.75;11.00;;;;;;;;5087048;27;51064;-57
2022/03/30 06:44:27;;;;;;;;;12.25;9.25;;;;;;;;5101076;27;51577;-55
2022/03/30 06:47:16;;;;;;;;;18.25;11.00;;;;;;;;5080948;27;51543;-57
2022/03/30 06:50:00;;;;;;;;;14.25;10.00;;;;;;;;5090833;27;51038;-57
2022/03/30 06:52:45;;;;;;;;;16.25;9.25;;;;;;;;5089825;27;51166;-57
2022/03/30 06:55:32;;;;;;;;;10.00;9.75;;;;;;;;5100220;27;51104;-57
2022/03/30 06:58:22;;;;;;;;;12.50;9.50;;;;;;;;5101139;27;51204;-57
2022/03/30 07:01:06;;;;;;;;;14.50;8.50;;;;;;;;5101839;27;51358;-57
2022/03/30 07:03:54;;;;;;;;;17.50;10.25;;;;;;;;5101282;27;51148;-57
2022/03/30 07:10:14;;;;;;;;;17.50;16.75;;;;;;;;5086549;27;51164;-57
2022/03/30 07:12:51;;;;;;;;;26.50;18.00;;;;;;;;5090218;27;51483;-57
2022/03/30 07:15:38;;;;;;;;;14.50;13.75;;;;;;;;5100706;27;51195;-57
2022/03/30 07:18:44;;;;;;;;;23.50;15.50;;;;;;;;5077913;27;51120;-57
2022/03/30 07:21:28;;;;;;;;;19.50;14.00;;;;;;;;5074799;27;51088;-57
2022/03/30 07:24:18;;;;;;;;;23.50;16.75;;;;;;;;5053599;27;51755;-57
2022/03/30 07:27:03;;;;;;;;;17.00;14.25;;;;;;;;5067886;27;51137;-57
2022/03/30 07:29:53;;;;;;;;;17.25;14.50;;;;;;;;5046345;27;51384;-56
2022/03/30 07:32:49;;;;;;;;;18.25;13.00;;;;;;;;5070633;27;51304;-58
2022/03/30 07:35:56;;;;;;;;;12.00;9.00;;;;;;;;5100432;27;51526;-57
2022/03/30 07:38:52;;;;;;;;;17.00;15.50;;;;;;;;5092102;27;52406;-57
2022/03/30 07:41:47;;;;;;;;;13.00;10.75;;;;;;;;5065061;27;51274;-57
2022/03/30 07:44:31;;;;;;;;;15.25;11.00;;;;;;;;5070188;27;51188;-57
2022/03/30 07:47:17;;;;;;;;;14.75;10.75;;;;;;;;5080428;27;51565;-57
2022/03/30 07:50:06;;;;;;;;;18.00;10.00;;;;;;;;5083325;27;51210;-57
2022/03/30 07:53:15;;;;;;;;;13.75;10.50;;;;;;;;5101512;27;51061;-57
2022/03/30 07:56:21;;;;;;;;;13.25;10.25;;;;;;;;5100769;27;51173;-57
2022/03/30 07:59:17;;;;;;;;;11.50;10.00;;;;;;;;5091179;27;51297;-57
2022/03/30 08:02:06;;;;;;;;;14.00;11.50;;;;;;;;5100733;27;51177;-57
2022/03/30 08:04:56;;;;;;;;;21.00;11.75;;;;;;;;5100493;27;51848;-57
2022/03/30 08:07:53;;;;;;;;;17.50;13.00;;;;;;;;5082828;27;51179;-57
2022/03/30 08:10:38;;;;;;;;;19.50;14.25;;;;;;;;5087629;27;51080;-56
2022/03/30 08:13:23;;;;;;;;;10.00;10.00;;;;;;;;5100413;27;51170;-57
2022/03/30 08:16:19;;;;;;;;;16.00;12.50;;;;;;;;5089918;27;51359;-57
2022/03/30 08:19:05;;;;;;;;;19.25;13.00;;;;;;;;5085093;27;51419;-57
2022/03/30 08:25:07;;;;;;;;;18.75;14.25;;;;;;;;5100865;27;51162;-57
2022/03/30 08:27:55;;;;;;;;;11.25;8.50;;;;;;;;5089329;27;51174;-57
2022/03/30 08:30:44;;;;;;;;;10.00;9.00;;;;;;;;5099835;27;51448;-56
2022/03/30 08:33:29;;;;;;;;;11.25;9.25;;;;;;;;5100266;27;51175;-57
2022/03/30 08:36:13;;;;;;;;;13.00;9.75;;;;;;;;5100155;27;51009;-57
2022/03/30 08:38:59;;;;;;;;;8.50;6.25;;;;;;;;5060974;27;51462;-57
2022/03/30 08:41:51;;;;;;;;;10.25;8.00;;;;;;;;5078211;27;51654;-58
2022/03/30 08:44:41;;;;;;;;;14.25;8.50;;;;;;;;5076990;27;51568;-57
2022/03/30 08:47:55;;;;;;;;;12.75;7.75;;;;;;;;5044392;27;51113;-57
2022/03/30 08:50:44;;;;;;;;;10.00;8.50;;;;;;;;5095613;27;50976;-58
2022/03/30 08:53:31;;;;;;;;;10.25;7.00;;;;;;;;5096199;27;51230;-57
2022/03/30 08:56:20;;;;;;;;;17.00;10.00;;;;;;;;5088438;27;51147;-57
2022/03/30 08:59:11;;;;;;;;;10.25;8.25;;;;;;;;5047481;27;51282;-58
2022/03/30 09:02:41;;;;;;;;;14.75;10.25;;;;;;;;5041017;27;51219;-57
2022/03/30 09:05:30;;;;;;;;;11.75;9.75;;;;;;;;5099957;27;51623;-57
2022/03/30 09:08:25;;;;;;;;;10.00;7.75;;;;;;;;5100000;27;51117;-57
2022/03/30 09:11:11;;;;;;;;;15.75;10.25;;;;;;;;5063096;27;51260;-57
2022/03/30 09:14:05;;;;;;;;;10.75;7.75;;;;;;;;5041023;27;52001;-58
2022/03/30 09:16:52;;;;;;;;;9.50;6.25;;;;;;;;5057222;27;51150;-57
2022/03/30 09:19:48;;;;;;;;;16.00;8.25;;;;;;;;5066534;27;51259;-57
2022/03/30 09:22:33;;;;;;;;;7.50;5.25;;;;;;;;5100144;27;51343;-57
2022/03/30 09:25:25;;;;;;;;;8.50;8.00;;;;;;;;5058153;27;51124;-57
2022/03/30 09:28:33;;;;;;;;;13.50;9.50;;;;;;;;5100046;27;51067;-57
2022/03/30 09:31:19;;;;;;;;;9.50;7.25;;;;;;;;5099017;27;51344;-58
2022/03/30 09:34:05;;;;;;;;;11.75;8.25;;;;;;;;5077589;27;51192;-57
2022/03/30 09:36:52;;;;;;;;;11.00;9.00;;;;;;;;5099343;27;51505;-57
2022/03/30 09:39:38;;;;;;;;;12.50;9.25;;;;;;;;5099398;27;51136;-57
2022/03/30 09:42:27;;;;;;;;;16.25;9.00;;;;;;;;5085606;27;51174;-57
2022/03/30 09:45:13;;;;;;;;;10.25;8.75;;;;;;;;5079972;27;51210;-57
2022/03/30 09:48:10;;;;;;;;;12.00;8.75;;;;;;;;5083294;27;51415;-57
2022/03/30 09:51:02;;;;;;;;;13.50;8.25;;;;;;;;5068183;27;51553;-57
2022/03/30 09:53:47;;;;;;;;;10.75;6.75;;;;;;;;5090359;27;51105;-58
2022/03/30 09:56:32;;;;;;;;;10.25;9.50;;;;;;;;5086071;27;51369;-57
2022/03/30 09:59:22;;;;;;;;;13.75;9.50;;;;;;;;5096344;27;51147;-57
2022/03/30 10:02:34;;;;;;;;;9.75;8.75;;;;;;;;5080139;27;51509;-58
2022/03/30 10:05:23;;;;;;;;;12.75;10.00;;;;;;;;5102793;27;51065;-57
2022/03/30 10:08:08;;;;;;;;;18.75;13.25;;;;;;;;5102547;27;51064;-57
2022/03/30 10:10:54;;;;;;;;;15.75;10.00;;;;;;;;5102715;27;51105;-58
2022/03/30 10:13:41;;;;;;;;;10.75;8.25;;;;;;;;5065920;27;51051;-58
2022/03/30 10:16:27;;;;;;;;;12.00;8.25;;;;;;;;5091158;27;51137;-57
2022/03/30 10:19:21;;;;;;;;;14.50;8.00;;;;;;;;5055728;27;51146;-57
2022/03/30 10:22:38;;;;;;;;;14.25;8.00;;;;;;;;5100650;27;51366;-57
2022/03/30 10:25:31;;;;;;;;;17.75;11.00;;;;;;;;5092978;27;51296;-57
2022/03/30 10:28:36;;;;;;;;;17.50;9.50;;;;;;;;5087317;27;51139;-57
2022/03/30 10:31:22;;;;;;;;;13.25;10.00;;;;;;;;5077871;27;51110;-57
2022/03/30 10:34:26;;;;;;;;;12.00;6.75;;;;;;;;5067343;27;50974;-58
2022/03/30 10:37:16;;;;;;;;;12.50;8.50;;;;;;;;5094795;27;51021;-57
2022/03/30 10:40:03;;;;;;;;;11.00;7.50;;;;;;;;5102124;27;51079;-57
2022/03/30 10:42:52;;;;;;;;;13.00;7.00;;;;;;;;5101306;27;51185;-57
2022/03/30 10:45:40;;;;;;;;;11.25;8.25;;;;;;;;5068460;27;52293;-58
2022/03/30 10:48:30;;;;;;;;;11.25;7.50;;;;;;;;5024108;27;51466;-58
2022/03/30 10:51:17;;;;;;;;;10.25;8.50;;;;;;;;5091131;27;51157;-57
2022/03/30 10:54:02;;;;;;;;;15.25;8.75;;;;;;;;5068022;27;51047;-57
2022/03/30 10:56:49;;;;;;;;;11.50;9.50;;;;;;;;5092278;27;51060;-57
2022/03/30 10:59:33;;;;;;;;;14.25;9.00;;;;;;;;5102014;27;51065;-57
2022/03/30 11:02:19;;;;;;;;;15.00;10.50;;;;;;;;5101879;27;51194;-57
2022/03/30 11:05:32;;;;;;;;;12.25;8.00;;;;;;;;5095756;27;51399;-57
2022/03/30 11:08:32;;;;;;;;;9.25;7.75;;;;;;;;5101275;27;51340;-57
2022/03/30 11:11:24;;;;;;;;;15.50;9.00;;;;;;;;5101698;27;51219;-57
2022/03/30 11:14:28;;;;;;;;;12.00;10.00;;;;;;;;5083606;27;51168;-57
2022/03/30 11:17:32;;;;;;;;;7.50;5.25;;;;;;;;5101667;27;51116;-55
2022/03/30 11:20:27;;;;;;;;;11.50;7.75;;;;;;;;5101416;27;51711;-58
2022/03/30 11:23:26;;;;;;;;;11.25;7.75;;;;;;;;5087120;27;51056;-58
2022/03/30 11:26:10;;;;;;;;;10.50;6.25;;;;;;;;5087422;27;51110;-58
2022/03/30 11:28:55;;;;;;;;;10.25;7.50;;;;;;;;5070158;27;51142;-57
2022/03/30 11:31:45;;;;;;;;;10.50;7.25;;;;;;;;5039822;27;52712;-58
2022/03/30 11:34:32;;;;;;;;;10.25;9.00;;;;;;;;5024389;27;51164;-58
2022/03/30 11:37:19;;;;;;;;;14.00;10.50;;;;;;;;5032822;27;51158;-59
2022/03/30 11:40:03;;;;;;;;;12.00;7.00;;;;;;;;5026590;27;51465;-58
2022/03/30 11:42:50;;;;;;;;;7.50;7.50;;;;;;;;5041137;27;51123;-59
2022/03/30 11:45:40;;;;;;;;;12.25;7.00;;;;;;;;5026886;27;51255;-58
2022/03/30 11:48:25;;;;;;;;;10.00;7.25;;;;;;;;5033953;27;51103;-58
2022/03/30 11:51:16;;;;;;;;;10.50;8.25;;;;;;;;5101012;27;51185;-58
2022/03/30 11:54:10;;;;;;;;;12.00;7.50;;;;;;;;5045608;27;51154;-59
2022/03/30 11:56:58;;;;;;;;;9.75;7.50;;;;;;;;5029023;27;51177;-58
2022/03/30 12:00:01;;;;;;;;;15.00;7.50;;;;;;;;5100434;27;51101;-58
2022/03/30 12:02:45;;;;;;;;;13.50;10.00;;;;;;;;5100183;27;51126;-58
2022/03/30 12:05:54;;;;;;;;;8.75;7.00;;;;;;;;5100595;27;51077;-58
2022/03/30 12:08:44;;;;;;;;;15.50;8.75;;;;;;;;5094220;27;51056;-58
2022/03/30 12:11:38;;;;;;;;;15.25;9.50;;;;;;;;5074865;27;51113;-58
2022/03/30 12:14:39;;;;;;;;;12.00;8.75;;;;;;;;5099559;27;51092;-58
2022/03/30 12:17:27;;;;;;;;;11.50;7.00;;;;;;;;5091510;27;51163;-58
2022/03/30 12:20:21;;;;;;;;;10.75;8.00;;;;;;;;5100359;27;51203;-58
2022/03/30 12:23:07;;;;;;;;;13.25;7.00;;;;;;;;5022140;27;52136;-58
2022/03/30 12:25:53;;;;;;;;;11.25;7.25;;;;;;;;5090119;27;51096;-58
2022/03/30 12:28:39;;;;;;;;;12.50;8.25;;;;;;;;5079023;27;52189;-58
2022/03/30 12:31:26;;;;;;;;;8.00;6.75;;;;;;;;5064887;27;51584;-58
2022/03/30 12:34:11;;;;;;;;;11.75;8.00;;;;;;;;5058141;27;51179;-58
2022/03/30 12:36:58;;;;;;;;;15.75;6.75;;;;;;;;5091672;27;52643;-59
2022/03/30 12:39:46;;;;;;;;;10.75;7.75;;;;;;;;5097889;27;51200;-58
2022/03/30 12:42:33;;;;;;;;;9.00;7.25;;;;;;;;5100153;27;51584;-58
2022/03/30 12:45:18;;;;;;;;;11.00;8.00;;;;;;;;5071278;27;51206;-58
2022/03/30 12:48:09;;;;;;;;;11.25;6.00;;;;;;;;5100104;27;51464;-58
2022/03/30 12:50:54;;;;;;;;;8.25;7.25;;;;;;;;5099826;27;51093;-58
2022/03/30 12:53:39;;;;;;;;;8.75;7.00;;;;;;;;5100475;27;51084;-58
2022/03/30 12:56:28;;;;;;;;;10.25;6.50;;;;;;;;5056767;27;51282;-57
2022/03/30 12:59:17;;;;;;;;;12.25;8.25;;;;;;;;5100026;27;51223;-58
2022/03/30 13:02:18;;;;;;;;;6.50;6.25;;;;;;;;5100511;27;51430;-59
2022/03/30 13:05:04;;;;;;;;;13.25;7.25;;;;;;;;5068868;27;51195;-58
2022/03/30 13:07:49;;;;;;;;;9.00;7.50;;;;;;;;5099527;27;51389;-58
2022/03/30 13:10:52;;;;;;;;;12.50;7.00;;;;;;;;5099717;27;51065;-58
2022/03/30 13:13:38;;;;;;;;;9.75;8.00;;;;;;;;5098801;27;51373;-58
2022/03/30 13:16:34;;;;;;;;;9.50;6.50;;;;;;;;5099173;27;51175;-58
2022/03/30 13:19:22;;;;;;;;;9.00;6.00;;;;;;;;5099906;27;51033;-58
2022/03/30 13:22:06;;;;;;;;;6.75;6.75;;;;;;;;5102455;27;51523;-58
2022/03/30 13:24:52;;;;;;;;;11.75;7.75;;;;;;;;5026211;27;51184;-58
2022/03/30 13:27:41;;;;;;;;;8.50;7.50;;;;;;;;5060726;27;51263;-58
2022/03/30 13:30:29;;;;;;;;;13.25;9.00;;;;;;;;5090679;27;51167;-58
2022/03/30 13:33:17;;;;;;;;;12.00;8.00;;;;;;;;5085239;27;51384;-58
2022/03/30 13:36:02;;;;;;;;;15.25;9.25;;;;;;;;5048251;27;51142;-58
2022/03/30 13:38:48;;;;;;;;;14.25;8.25;;;;;;;;5029975;27;51170;-58
2022/03/30 13:41:33;;;;;;;;;8.25;7.00;;;;;;;;5040604;27;51098;-58
2022/03/30 13:44:17;;;;;;;;;9.25;5.50;;;;;;;;5022245;27;51117;-58
2022/03/30 13:47:02;;;;;;;;;11.75;9.25;;;;;;;;5046445;27;51024;-58
2022/03/30 13:49:52;;;;;;;;;8.75;5.75;;;;;;;;5083345;27;51090;-58
2022/03/30 13:52:37;;;;;;;;;14.50;7.50;;;;;;;;5055067;27;51462;-58
2022/03/30 13:55:22;;;;;;;;;7.50;5.50;;;;;;;;5026047;27;51092;-58
2022/03/30 13:58:07;;;;;;;;;11.50;7.25;;;;;;;;5017652;27;51084;-58
2022/03/30 14:00:52;;;;;;;;;8.00;7.00;;;;;;;;5055235;27;51152;-58
2022/03/30 14:03:36;;;;;;;;;13.25;7.25;;;;;;;;5048274;27;51441;-58
2022/03/30 14:06:23;;;;;;;;;12.25;6.50;;;;;;;;5093016;27;51357;-58
2022/03/30 14:09:07;;;;;;;;;8.50;8.00;;;;;;;;5103295;27;51259;-58
2022/03/30 14:11:52;;;;;;;;;7.25;5.50;;;;;;;;5101611;27;51483;-58
2022/03/30 14:14:36;;;;;;;;;9.50;6.50;;;;;;;;5072365;27;51247;-58
2022/03/30 14:17:37;;;;;;;;;11.25;6.50;;;;;;;;5098953;27;51478;-57
2022/03/30 14:20:22;;;;;;;;;10.50;9.75;;;;;;;;5101780;27;51201;-58
2022/03/30 14:23:07;;;;;;;;;8.50;6.50;;;;;;;;5062594;27;51305;-58
2022/03/30 14:25:51;;;;;;;;;8.50;5.25;;;;;;;;5039900;27;51450;-58
2022/03/30 14:28:37;;;;;;;;;9.00;6.00;;;;;;;;5092677;27;51316;-58
2022/03/30 14:31:21;;;;;;;;;11.00;7.00;;;;;;;;5101814;27;51068;-59
2022/03/30 14:34:09;;;;;;;;;12.75;6.75;;;;;;;;5071406;27;51254;-58
2022/03/30 14:36:56;;;;;;;;;12.50;7.50;;;;;;;;5072712;27;51572;-58
2022/03/30 14:39:43;;;;;;;;;16.00;9.50;;;;;;;;5035729;27;51241;-58
2022/03/30 14:42:28;;;;;;;;;6.75;6.00;;;;;;;;5080948;27;51109;-58
2022/03/30 14:45:23;;;;;;;;;12.50;8.25;;;;;;;;5067580;27;51006;-58
2022/03/30 14:48:09;;;;;;;;;13.75;7.75;;;;;;;;5084620;27;51555;-58
2022/03/30 14:51:07;;;;;;;;;15.50;7.25;;;;;;;;5098444;27;51106;-56
2022/03/30 14:53:52;;;;;;;;;11.75;8.25;;;;;;;;5102087;27;51132;-58
2022/03/30 14:56:40;;;;;;;;;11.25;8.75;;;;;;;;5101672;27;51114;-58
2022/03/30 14:59:25;;;;;;;;;9.00;6.00;;;;;;;;5014234;27;51149;-58
2022/03/30 15:02:09;;;;;;;;;8.00;7.00;;;;;;;;5101720;27;51641;-58
2022/03/30 15:04:54;;;;;;;;;10.50;3.75;;;;;;;;5101869;27;51439;-58
2022/03/30 15:07:38;;;;;;;;;10.75;6.50;;;;;;;;5083162;27;51115;-57
2022/03/30 15:10:23;;;;;;;;;8.50;7.50;;;;;;;;5100673;27;51142;-58
2022/03/30 15:13:07;;;;;;;;;9.75;7.25;;;;;;;;5066134;27;51374;-58
2022/03/30 15:15:55;;;;;;;;;8.00;6.25;;;;;;;;5086592;27;51240;-57
2022/03/30 15:18:40;;;;;;;;;10.50;7.00;;;;;;;;5069965;27;51414;-58
2022/03/30 15:21:28;;;;;;;;;9.50;7.00;;;;;;;;5101811;27;51128;-58
2022/03/30 15:24:12;;;;;;;;;10.75;6.75;;;;;;;;5054492;27;51968;-57
2022/03/30 15:26:58;;;;;;;;;8.50;6.00;;;;;;;;5057473;27;51542;-58
2022/03/30 15:29:43;;;;;;;;;10.75;6.00;;;;;;;;5096897;27;51203;-57
2022/03/30 15:32:29;;;;;;;;;7.00;7.00;;;;;;;;5034882;27;51165;-58
2022/03/30 15:35:14;;;;;;;;;12.00;8.25;;;;;;;;5022669;27;51079;-58
2022/03/30 15:37:59;;;;;;;;;9.25;7.50;;;;;;;;5017412;27;51218;-56
2022/03/30 15:40:44;;;;;;;;;8.75;7.00;;;;;;;;5018903;27;51254;-58
2022/03/30 15:43:28;;;;;;;;;12.00;7.25;;;;;;;;5057420;27;51279;-58
2022/03/30 15:46:14;;;;;;;;;14.75;7.00;;;;;;;;5024925;27;51376;-58
2022/03/30 15:49:02;;;;;;;;;12.25;7.50;;;;;;;;5012652;27;51205;-58
2022/03/30 15:51:46;;;;;;;;;10.25;7.25;;;;;;;;5048117;27;51115;-57
2022/03/30 15:54:31;;;;;;;;;11.50;7.75;;;;;;;;5010334;27;51213;-58
2022/03/30 15:57:17;;;;;;;;;13.25;8.00;;;;;;;;5051991;27;51187;-58
2022/03/30 16:00:04;;;;;;;;;13.75;8.25;;;;;;;;5087987;27;51105;-57
2022/03/30 16:02:48;;;;;;;;;14.50;8.25;;;;;;;;5050686;27;51115;-58
2022/03/30 16:05:34;;;;;;;;;13.75;8.75;;;;;;;;5032224;27;51203;-58
2022/03/30 16:14:54;;;;;;;;;12.50;9.25;;;;;;;;5057000;27;51186;-57
2022/03/30 16:17:39;;;;;;;;;10.75;8.00;;;;;;;;5094822;27;51466;-57
2022/03/30 16:20:23;;;;;;;;;16.00;7.75;;;;;;;;5078751;27;51125;-57
2022/03/30 16:23:09;;;;;;;;;10.25;7.75;;;;;;;;5098637;27;51064;-58
2022/03/30 16:25:54;;;;;;;;;14.00;10.00;;;;;;;;5089898;27;51073;-57
2022/03/30 16:28:40;;;;;;;;;8.50;6.00;;;;;;;;5068589;27;51556;-58
2022/03/30 16:31:26;;;;;;;;;13.00;9.50;;;;;;;;5083841;27;51092;-57
2022/03/30 16:34:14;;;;;;;;;13.25;9.75;;;;;;;;5079464;27;51101;-57
2022/03/30 16:37:03;;;;;;;;;9.25;6.50;;;;;;;;5057326;27;51590;-57
2022/03/30 16:39:50;;;;;;;;;11.75;7.25;;;;;;;;5069749;27;51249;-57
2022/03/30 16:42:38;;;;;;;;;8.25;6.50;;;;;;;;5099818;27;51068;-57
2022/03/30 16:45:25;;;;;;;;;12.50;7.25;;;;;;;;5084493;27;51107;-57
2022/03/30 16:48:09;;;;;;;;;9.25;6.50;;;;;;;;5065358;27;51123;-58
2022/03/30 16:50:56;;;;;;;;;12.75;9.00;;;;;;;;5090982;27;51036;-58
2022/03/30 16:53:42;;;;;;;;;13.00;8.50;;;;;;;;5079143;27;51177;-57
2022/03/30 16:56:28;;;;;;;;;9.25;7.50;;;;;;;;5097119;27;51057;-57
2022/03/30 16:59:33;;;;;;;;;18.50;11.25;;;;;;;;5098706;27;51260;-58
2022/03/30 17:02:28;;;;;;;;;14.75;8.50;;;;;;;;5078348;27;52009;-57